Cathma — PJTL — position and weather

sailwx.info

Track history (hours):
 
Tides and Currents Weather Stations Pressure Air Temp Water Temp Dewpoint Dewpoint Depression Visibility Wind Speed Wind Dir Waves Ship Positions

Cathma

Last reported at 2014-Dec-22 09:33 UTC. Time now 2014-Dec-22 09:52 UTC.
Position N 43°33' E 010°18'.

Length 111 m; draft 4.1 m.

Type: Ship. MMSI: 306832000.

Date/timePositionNaut miles runAvg speedWind from/ knotsBaromVisibWave heightAir tempDewpointWater temp
2014-Dec-22 09:33N 43°33' E 010°18'0 0.0
2014-Dec-22 08:32N 43°33' E 010°18'0 0.0
2014-Dec-22 07:32N 43°33' E 010°18'0 0.0
2014-Dec-22 06:31N 43°33' E 010°18'0 0.0
2014-Dec-22 05:31N 43°33' E 010°18'0 0.0
2014-Dec-22 04:25N 43°33' E 010°18'0 0.0
2014-Dec-22 03:33N 43°33' E 010°18'0 0.0
2014-Dec-22 02:33N 43°33' E 010°18'0 0.0
2014-Dec-22 01:32N 43°33' E 010°18'0 0.0
2014-Dec-22 00:32N 43°33' E 010°18'0 0.0
2014-Dec-21 23:31N 43°33' E 010°18'0 0.0
2014-Dec-21 22:28N 43°33' E 010°18'0 0.0
2014-Dec-21 21:31N 43°33' E 010°18'0 0.0
2014-Dec-21 20:33N 43°33' E 010°18'0 0.0
2014-Dec-21 19:33N 43°33' E 010°18'0 0.0
2014-Dec-21 18:32N 43°33' E 010°18'0 0.0
2014-Dec-21 17:32N 43°33' E 010°18'0 0.0
2014-Dec-21 16:31N 43°33' E 010°18'0 0.0
2014-Dec-21 15:31N 43°33' E 010°18'0 0.0
2014-Dec-21 14:28N 43°33' E 010°18'0 0.0
2014-Dec-21 13:30N 43°33' E 010°18'0 0.0
2014-Dec-21 12:33N 43°33' E 010°18'0 0.0
2014-Dec-21 11:26N 43°33' E 010°18'0 0.0
2014-Dec-21 10:32N 43°33' E 010°18'0 0.0
2014-Dec-21 09:28N 43°33' E 010°18'0 0.3
2014-Dec-21 08:33N 43°33' E 010°18'2 2.4
2014-Dec-21 07:31N 43°31' E 010°16'0 0.0
2014-Dec-21 06:31N 43°31' E 010°16'0 0.0
2014-Dec-21 05:30N 43°31' E 010°16'5 4.9
2014-Dec-21 04:33N 43°31' E 010°10'8 8.4
2014-Dec-21 03:33N 43°35' E 009°60'8 8.4
2014-Dec-21 02:33N 43°42' E 009°52'8 8.3
2014-Dec-21 01:33N 43°47' E 009°44'8 7.8
2014-Dec-21 00:33N 43°53' E 009°36'7 7.4
2014-Dec-20 23:33N 43°58' E 009°29'8 7.8
2014-Dec-20 22:33N 44°04' E 009°21'8 7.8
2014-Dec-20 21:33N 44°09' E 009°14'8 7.7
2014-Dec-20 20:33N 44°15' E 009°06'8 8.1
2014-Dec-20 19:33N 44°20' E 008°58'5 4.9
2014-Dec-20 18:29N 44°24' E 008°53'0 0.0
2014-Dec-20 17:32N 44°24' E 008°53'0 0.0
2014-Dec-20 16:32N 44°24' E 008°53'0 0.0
2014-Dec-20 15:31N 44°24' E 008°53'0 0.0
2014-Dec-20 14:31N 44°24' E 008°53'0 0.0
2014-Dec-20 12:30N 44°24' E 008°53'0 0.0
2014-Dec-20 11:14N 44°24' E 008°53'0 0.0
2014-Dec-20 10:32N 44°24' E 008°53'0 0.0
2014-Dec-20 09:22N 44°24' E 008°53'0 0.0
2014-Dec-20 07:16N 44°24' E 008°53'0 0.0
2014-Dec-20 06:33N 44°24' E 008°53'0 0.0
2014-Dec-20 05:21N 44°24' E 008°53'1 0.8
2014-Dec-20 04:34N 44°24' E 008°54'5 4.9
2014-Dec-20 03:33N 44°20' E 008°59'10 9.8
2014-Dec-20 02:33N 44°14' E 008°49'11 9.7
2014-Dec-20 01:24N 44°06' E 008°37'69 9.8
2014-Dec-19 18:25N 43°24' E 007°22'910.4
2014-Dec-19 17:32N 43°18' E 007°12'1110.5
2014-Dec-19 16:30N 43°12' E 007°00'19 9.8
2014-Dec-19 14:32N 43°00' E 006°39'11 9.5
2014-Dec-19 13:23N 42°54' E 006°26'130 9.9
2014-Dec-19 00:12N 41°52' E 003°52'6 8.9
2014-Dec-18 23:33N 41°50' E 003°45'10 9.5
2014-Dec-18 22:32N 41°45' E 003°33'1010.6
2014-Dec-18 21:33N 41°40' E 003°21'1010.4
2014-Dec-18 20:33N 41°35' E 003°09'1110.9
2014-Dec-18 19:33N 41°30' E 002°56'1111.3
2014-Dec-18 18:33N 41°25' E 002°43'1110.8
2014-Dec-18 17:33N 41°19' E 002°30'1210.5
2014-Dec-18 16:25N 41°14' E 002°16'910.7
2014-Dec-18 15:33N 41°11' E 002°05'1211.0
2014-Dec-18 14:30N 41°09' E 001°49'28 3.4
2014-Dec-18 06:27N 41°05' E 001°13'42 8.6
2014-Dec-18 01:31N 40°24' E 000°60'10 9.9
2014-Dec-18 00:33N 40°15' E 000°57'1010.1
2014-Dec-17 23:32N 40°05' E 000°54'41 9.6
2014-Dec-17 19:13N 39°25' E 000°41'1010.3
2014-Dec-17 18:16N 39°15' E 000°38'9210.3
2014-Dec-17 09:17N 37°53' W 000°14'7 9.8
2014-Dec-17 08:33N 37°47' W 000°19'9 9.3
2014-Dec-17 07:33N 37°39' W 000°26'32 9.3
2014-Dec-17 04:05N 37°16' W 000°55'224 9.9
2014-Dec-16 05:33N 35°59' W 005°16'  
Track history (hours):
 
Tides and Currents Weather Stations Pressure Air Temp Water Temp Dewpoint Dewpoint Depression Visibility Wind Speed Wind Dir Waves Ship Positions

Cathma

Last reported at 2014-Dec-22 09:33 UTC. Time now 2014-Dec-22 09:52 UTC.
Position N 43°33' E 010°18'.

Length 111 m; draft 4.1 m.

Type: Ship. MMSI: 306832000.

Date/timePositionNaut miles runAvg speedWind from/ knotsBaromVisibWave heightAir tempDewpointWater temp
2014-Dec-22 09:33N 43°33' E 010°18'0 0.0
2014-Dec-22 08:32N 43°33' E 010°18'0 0.0
2014-Dec-22 07:32N 43°33' E 010°18'0 0.0
2014-Dec-22 06:31N 43°33' E 010°18'0 0.0
2014-Dec-22 05:31N 43°33' E 010°18'0 0.0
2014-Dec-22 04:25N 43°33' E 010°18'0 0.0
2014-Dec-22 03:33N 43°33' E 010°18'0 0.0
2014-Dec-22 02:33N 43°33' E 010°18'0 0.0
2014-Dec-22 01:32N 43°33' E 010°18'0 0.0
2014-Dec-22 00:32N 43°33' E 010°18'0 0.0
2014-Dec-21 23:31N 43°33' E 010°18'0 0.0
2014-Dec-21 22:28N 43°33' E 010°18'0 0.0
2014-Dec-21 21:31N 43°33' E 010°18'0 0.0
2014-Dec-21 20:33N 43°33' E 010°18'0 0.0
2014-Dec-21 19:33N 43°33' E 010°18'0 0.0
2014-Dec-21 18:32N 43°33' E 010°18'0 0.0
2014-Dec-21 17:32N 43°33' E 010°18'0 0.0
2014-Dec-21 16:31N 43°33' E 010°18'0 0.0
2014-Dec-21 15:31N 43°33' E 010°18'0 0.0
2014-Dec-21 14:28N 43°33' E 010°18'0 0.0
2014-Dec-21 13:30N 43°33' E 010°18'0 0.0
2014-Dec-21 12:33N 43°33' E 010°18'0 0.0
2014-Dec-21 11:26N 43°33' E 010°18'0 0.0
2014-Dec-21 10:32N 43°33' E 010°18'0 0.0
2014-Dec-21 09:28N 43°33' E 010°18'0 0.3
2014-Dec-21 08:33N 43°33' E 010°18'2 2.4
2014-Dec-21 07:31N 43°31' E 010°16'0 0.0
2014-Dec-21 06:31N 43°31' E 010°16'0 0.0
2014-Dec-21 05:30N 43°31' E 010°16'5 4.9
2014-Dec-21 04:33N 43°31' E 010°10'8 8.4
2014-Dec-21 03:33N 43°35' E 009°60'8 8.4
2014-Dec-21 02:33N 43°42' E 009°52'8 8.3
2014-Dec-21 01:33N 43°47' E 009°44'8 7.8
2014-Dec-21 00:33N 43°53' E 009°36'7 7.4
2014-Dec-20 23:33N 43°58' E 009°29'8 7.8
2014-Dec-20 22:33N 44°04' E 009°21'8 7.8
2014-Dec-20 21:33N 44°09' E 009°14'8 7.7
2014-Dec-20 20:33N 44°15' E 009°06'8 8.1
2014-Dec-20 19:33N 44°20' E 008°58'5 4.9
2014-Dec-20 18:29N 44°24' E 008°53'0 0.0
2014-Dec-20 17:32N 44°24' E 008°53'0 0.0
2014-Dec-20 16:32N 44°24' E 008°53'0 0.0
2014-Dec-20 15:31N 44°24' E 008°53'0 0.0
2014-Dec-20 14:31N 44°24' E 008°53'0 0.0
2014-Dec-20 12:30N 44°24' E 008°53'0 0.0
2014-Dec-20 11:14N 44°24' E 008°53'0 0.0
2014-Dec-20 10:32N 44°24' E 008°53'0 0.0
2014-Dec-20 09:22N 44°24' E 008°53'0 0.0
2014-Dec-20 07:16N 44°24' E 008°53'0 0.0
2014-Dec-20 06:33N 44°24' E 008°53'0 0.0
2014-Dec-20 05:21N 44°24' E 008°53'1 0.8
2014-Dec-20 04:34N 44°24' E 008°54'5 4.9
2014-Dec-20 03:33N 44°20' E 008°59'10 9.8
2014-Dec-20 02:33N 44°14' E 008°49'11 9.7
2014-Dec-20 01:24N 44°06' E 008°37'69 9.8
2014-Dec-19 18:25N 43°24' E 007°22'910.4
2014-Dec-19 17:32N 43°18' E 007°12'1110.5
2014-Dec-19 16:30N 43°12' E 007°00'19 9.8
2014-Dec-19 14:32N 43°00' E 006°39'11 9.5
2014-Dec-19 13:23N 42°54' E 006°26'130 9.9
2014-Dec-19 00:12N 41°52' E 003°52'6 8.9
2014-Dec-18 23:33N 41°50' E 003°45'10 9.5
2014-Dec-18 22:32N 41°45' E 003°33'1010.6
2014-Dec-18 21:33N 41°40' E 003°21'1010.4
2014-Dec-18 20:33N 41°35' E 003°09'1110.9
2014-Dec-18 19:33N 41°30' E 002°56'1111.3
2014-Dec-18 18:33N 41°25' E 002°43'1110.8
2014-Dec-18 17:33N 41°19' E 002°30'1210.5
2014-Dec-18 16:25N 41°14' E 002°16'910.7
2014-Dec-18 15:33N 41°11' E 002°05'1211.0
2014-Dec-18 14:30N 41°09' E 001°49'28 3.4
2014-Dec-18 06:27N 41°05' E 001°13'42 8.6
2014-Dec-18 01:31N 40°24' E 000°60'10 9.9
2014-Dec-18 00:33N 40°15' E 000°57'1010.1
2014-Dec-17 23:32N 40°05' E 000°54'41 9.6
2014-Dec-17 19:13N 39°25' E 000°41'1010.3
2014-Dec-17 18:16N 39°15' E 000°38'9210.3
2014-Dec-17 09:17N 37°53' W 000°14'7 9.8
2014-Dec-17 08:33N 37°47' W 000°19'9 9.3
2014-Dec-17 07:33N 37°39' W 000°26'32 9.3
2014-Dec-17 04:05N 37°16' W 000°55'224 9.9
2014-Dec-16 05:33N 35°59' W 005°16'  

Dump ship's entire track history